sensor_id;sensor_type;location;lat;lon;timestamp;pressure;altitude;pressure_sealevel;temperature;humidity
33422;BME280;19763;55.798;37.782;2023-04-03T00:02:15;149615.69;;;9.23;77.94
33422;BME280;19763;55.798;37.782;2023-04-03T00:04:41;149577.25;;;9.07;77.00
33422;BME280;19763;55.798;37.782;2023-04-03T00:07:07;149577.25;;;9.07;77.06
33422;BME280;19763;55.798;37.782;2023-04-03T00:09:32;149605.44;;;9.19;75.77
33422;BME280;19763;55.798;37.782;2023-04-03T00:11:58;149640.03;;;9.32;78.98
33422;BME280;19763;55.798;37.782;2023-04-03T00:14:23;149650.28;;;9.37;78.89
33422;BME280;19763;55.798;37.782;2023-04-03T00:16:49;149661.81;;;9.41;78.64
33422;BME280;19763;55.798;37.782;2023-04-03T00:19:15;149652.81;;;9.38;78.98
33422;BME280;19763;55.798;37.782;2023-04-03T00:21:40;149668.22;;;9.44;78.91
33422;BME280;19763;55.798;37.782;2023-04-03T00:24:06;149672.06;;;9.45;78.00
33422;BME280;19763;55.798;37.782;2023-04-03T00:26:32;149625.94;;;9.27;77.58
33422;BME280;19763;55.798;37.782;2023-04-03T00:28:58;149633.63;;;9.30;75.77
33422;BME280;19763;55.798;37.782;2023-04-03T00:31:23;149623.34;;;9.26;74.89
33422;BME280;19763;55.798;37.782;2023-04-03T00:33:49;149645.13;;;9.35;75.00
33422;BME280;19763;55.798;37.782;2023-04-03T00:36:14;149638.75;;;9.32;75.76
33422;BME280;19763;55.798;37.782;2023-04-03T00:38:41;149641.28;;;9.33;75.29
33422;BME280;19763;55.798;37.782;2023-04-03T00:41:07;149646.44;;;9.35;75.46
33422;BME280;19763;55.798;37.782;2023-04-03T00:43:33;149628.50;;;9.28;75.66
33422;BME280;19763;55.798;37.782;2023-04-03T00:45:59;149572.13;;;9.05;74.60
33422;BME280;19763;55.798;37.782;2023-04-03T00:48:34;149545.22;;;8.94;75.68
33422;BME280;19763;55.798;37.782;2023-04-03T00:51:02;149540.13;;;8.92;74.89
33422;BME280;19763;55.798;37.782;2023-04-03T00:53:33;149551.63;;;8.97;75.25
33422;BME280;19763;55.798;37.782;2023-04-03T00:56:01;149537.53;;;8.91;75.88
33422;BME280;19763;55.798;37.782;2023-04-03T00:58:40;149574.66;;;9.06;76.02
33422;BME280;19763;55.798;37.782;2023-04-03T01:01:10;149552.91;;;8.97;75.90
33422;BME280;19763;55.798;37.782;2023-04-03T01:03:37;149587.50;;;9.11;76.06
33422;BME280;19763;55.798;37.782;2023-04-03T01:06:03;149584.91;;;9.10;76.49
33422;BME280;19763;55.798;37.782;2023-04-03T01:08:30;149592.59;;;9.13;76.00
33422;BME280;19763;55.798;37.782;2023-04-03T01:10:55;149545.22;;;8.94;76.27
33422;BME280;19763;55.798;37.782;2023-04-03T01:13:30;149534.97;;;8.90;75.91
33422;BME280;19763;55.798;37.782;2023-04-03T01:15:57;149547.78;;;8.95;75.82
33422;BME280;19763;55.798;37.782;2023-04-03T01:18:26;149561.88;;;9.01;76.19
33422;BME280;19763;55.798;37.782;2023-04-03T01:25:52;149495.28;;;8.74;76.68
33422;BME280;19763;55.798;37.782;2023-04-03T01:31:43;149486.34;;;8.71;76.35
33422;BME280;19763;55.798;37.782;2023-04-03T01:33:38;149494.00;;;8.74;77.20
33422;BME280;19763;55.798;37.782;2023-04-03T01:36:04;149508.09;;;8.79;77.70
33422;BME280;19763;55.798;37.782;2023-04-03T01:38:30;149515.78;;;8.83;78.01
33422;BME280;19763;55.798;37.782;2023-04-03T01:40:56;149508.09;;;8.79;77.34
33422;BME280;19763;55.798;37.782;2023-04-03T01:43:22;149504.25;;;8.78;77.65
33422;BME280;19763;55.798;37.782;2023-04-03T01:45:47;149513.19;;;8.81;77.82
33422;BME280;19763;55.798;37.782;2023-04-03T01:48:14;149492.69;;;8.73;77.66
33422;BME280;19763;55.798;37.782;2023-04-03T01:50:40;149505.53;;;8.78;78.21
33422;BME280;19763;55.798;37.782;2023-04-03T01:53:06;149482.44;;;8.69;77.75
33422;BME280;19763;55.798;37.782;2023-04-03T01:55:32;149449.19;;;8.56;77.50
33422;BME280;19763;55.798;37.782;2023-04-03T01:57:58;149482.44;;;8.69;77.65
33422;BME280;19763;55.798;37.782;2023-04-03T02:00:23;149464.53;;;8.62;78.27
33422;BME280;19763;55.798;37.782;2023-04-03T02:02:49;149462.00;;;8.61;77.04
33422;BME280;19763;55.798;37.782;2023-04-03T02:05:15;149470.94;;;8.64;77.25
33422;BME280;19763;55.798;37.782;2023-04-03T02:07:40;149478.63;;;8.68;78.26
33422;BME280;19763;55.798;37.782;2023-04-03T02:10:06;149453.03;;;8.57;78.08
33422;BME280;19763;55.798;37.782;2023-04-03T02:12:32;149464.53;;;8.62;78.69
33422;BME280;19763;55.798;37.782;2023-04-03T02:14:57;149472.25;;;8.65;78.61
33422;BME280;19763;55.798;37.782;2023-04-03T02:17:23;149469.69;;;8.64;79.09
33422;BME280;19763;55.798;37.782;2023-04-03T02:19:49;149459.44;;;8.60;79.19
33422;BME280;19763;55.798;37.782;2023-04-03T02:22:14;149469.69;;;8.64;79.85
33422;BME280;19763;55.798;37.782;2023-04-03T02:24:40;149469.69;;;8.64;79.39
33422;BME280;19763;55.798;37.782;2023-04-03T02:27:06;149468.38;;;8.63;79.67
33422;BME280;19763;55.798;37.782;2023-04-03T02:29:32;149454.28;;;8.58;78.58
33422;BME280;19763;55.798;37.782;2023-04-03T02:31:58;149445.34;;;8.54;78.49
33422;BME280;19763;55.798;37.782;2023-04-03T02:34:23;149440.19;;;8.52;78.74
33422;BME280;19763;55.798;37.782;2023-04-03T02:36:49;149405.63;;;8.38;79.00
33422;BME280;19763;55.798;37.782;2023-04-03T02:39:15;149431.25;;;8.49;77.86
33422;BME280;19763;55.798;37.782;2023-04-03T02:41:41;149433.84;;;8.50;78.92
33422;BME280;19763;55.798;37.782;2023-04-03T02:44:09;149424.84;;;8.46;78.55
33422;BME280;19763;55.798;37.782;2023-04-03T02:46:35;149430.00;;;8.48;78.98
33422;BME280;19763;55.798;37.782;2023-04-03T02:49:00;149414.53;;;8.42;79.33
33422;BME280;19763;55.798;37.782;2023-04-03T02:51:26;149394.06;;;8.34;78.83
33422;BME280;19763;55.798;37.782;2023-04-03T02:53:51;149374.88;;;8.26;77.70
33422;BME280;19763;55.798;37.782;2023-04-03T02:56:17;149383.84;;;8.29;78.09
33422;BME280;19763;55.798;37.782;2023-04-03T02:58:44;149376.13;;;8.26;77.85
33422;BME280;19763;55.798;37.782;2023-04-03T03:01:10;149374.88;;;8.26;78.07
33422;BME280;19763;55.798;37.782;2023-04-03T03:03:36;149368.47;;;8.23;77.92
33422;BME280;19763;55.798;37.782;2023-04-03T03:06:10;149326.22;;;8.06;78.39
33422;BME280;19763;55.798;37.782;2023-04-03T03:08:36;149327.53;;;8.07;77.40
33422;BME280;19763;55.798;37.782;2023-04-03T03:11:03;149337.78;;;8.11;78.63
33422;BME280;19763;55.798;37.782;2023-04-03T03:13:29;149355.69;;;8.18;77.92
33422;BME280;19763;55.798;37.782;2023-04-03T03:15:55;149362.06;;;8.21;78.46
33422;BME280;19763;55.798;37.782;2023-04-03T03:18:21;149358.22;;;8.19;79.52
33422;BME280;19763;55.798;37.782;2023-04-03T03:21:00;149324.97;;;8.06;78.52
33422;BME280;19763;55.798;37.782;2023-04-03T03:23:28;149328.78;;;8.07;78.87
33422;BME280;19763;55.798;37.782;2023-04-03T03:25:59;149312.13;;;8.01;78.47
33422;BME280;19763;55.798;37.782;2023-04-03T03:28:25;149232.81;;;7.69;78.41
33422;BME280;19763;55.798;37.782;2023-04-03T03:30:51;149262.22;;;7.81;78.65
33422;BME280;19763;55.798;37.782;2023-04-03T03:33:17;149259.72;;;7.80;78.45
33422;BME280;19763;55.798;37.782;2023-04-03T03:35:44;149269.91;;;7.84;77.96
33422;BME280;19763;55.798;37.782;2023-04-03T03:38:10;149280.16;;;7.88;78.19
33422;BME280;19763;55.798;37.782;2023-04-03T03:40:36;149254.56;;;7.77;78.25
33422;BME280;19763;55.798;37.782;2023-04-03T03:43:02;149283.97;;;7.89;78.03
33422;BME280;19763;55.798;37.782;2023-04-03T03:45:27;149278.88;;;7.87;78.61
33422;BME280;19763;55.798;37.782;2023-04-03T03:47:53;149259.72;;;7.80;78.60
33422;BME280;19763;55.798;37.782;2023-04-03T03:50:18;149298.06;;;7.95;78.56
33422;BME280;19763;55.798;37.782;2023-04-03T03:52:44;149321.13;;;8.04;78.03
33422;BME280;19763;55.798;37.782;2023-04-03T03:55:10;149313.44;;;8.01;77.82
33422;BME280;19763;55.798;37.782;2023-04-03T03:57:36;149313.44;;;8.01;77.56
33422;BME280;19763;55.798;37.782;2023-04-03T04:00:02;149335.19;;;8.10;76.65
33422;BME280;19763;55.798;37.782;2023-04-03T04:02:29;149340.28;;;8.12;77.18
33422;BME280;19763;55.798;37.782;2023-04-03T04:04:55;149309.63;;;8.00;76.64
33422;BME280;19763;55.798;37.782;2023-04-03T04:07:21;149331.38;;;8.08;76.38
33422;BME280;19763;55.798;37.782;2023-04-03T04:09:47;149333.94;;;8.09;75.53
33422;BME280;19763;55.798;37.782;2023-04-03T04:12:12;149330.06;;;8.08;75.20
33422;BME280;19763;55.798;37.782;2023-04-03T04:14:38;149351.84;;;8.17;75.32
33422;BME280;19763;55.798;37.782;2023-04-03T04:17:03;149330.06;;;8.08;75.29
33422;BME280;19763;55.798;37.782;2023-04-03T04:19:29;149309.63;;;8.00;75.89
33422;BME280;19763;55.798;37.782;2023-04-03T04:21:55;149349.28;;;8.16;75.68
33422;BME280;19763;55.798;37.782;2023-04-03T04:24:20;149291.69;;;7.92;76.05
33422;BME280;19763;55.798;37.782;2023-04-03T04:26:48;149272.47;;;7.85;75.68
33422;BME280;19763;55.798;37.782;2023-04-03T04:29:13;149197.00;;;7.54;76.42
33422;BME280;19763;55.798;37.782;2023-04-03T04:31:39;149254.56;;;7.77;76.61
33422;BME280;19763;55.798;37.782;2023-04-03T04:34:05;149202.09;;;7.56;76.75
33422;BME280;19763;55.798;37.782;2023-04-03T04:36:31;149214.91;;;7.62;77.19
33422;BME280;19763;55.798;37.782;2023-04-03T04:38:56;149225.16;;;7.66;76.36
33422;BME280;19763;55.798;37.782;2023-04-03T04:41:23;149260.97;;;7.80;76.02
33422;BME280;19763;55.798;37.782;2023-04-03T04:43:51;149223.84;;;7.65;77.21
33422;BME280;19763;55.798;37.782;2023-04-03T04:46:17;149254.56;;;7.77;76.95
33422;BME280;19763;55.798;37.782;2023-04-03T04:48:44;149260.97;;;7.80;76.01
33422;BME280;19763;55.798;37.782;2023-04-03T04:51:10;149255.81;;;7.78;75.86
33422;BME280;19763;55.798;37.782;2023-04-03T04:53:36;149315.97;;;8.02;76.54
33422;BME280;19763;55.798;37.782;2023-04-03T04:56:01;149280.16;;;7.88;76.31
33422;BME280;19763;55.798;37.782;2023-04-03T04:58:27;149358.22;;;8.19;74.72
33422;BME280;19763;55.798;37.782;2023-04-03T05:01:04;149408.13;;;8.39;75.07
33422;BME280;19763;55.798;37.782;2023-04-03T05:03:30;149428.69;;;8.48;74.29
33422;BME280;19763;55.798;37.782;2023-04-03T05:05:56;149465.84;;;8.62;74.75
33422;BME280;19763;55.798;37.782;2023-04-03T05:08:22;149500.38;;;8.76;73.55
33422;BME280;19763;55.798;37.782;2023-04-03T05:10:47;149505.53;;;8.78;72.85
33422;BME280;19763;55.798;37.782;2023-04-03T05:13:13;149533.72;;;8.90;73.73
33422;BME280;19763;55.798;37.782;2023-04-03T05:15:39;149565.72;;;9.03;72.57
33422;BME280;19763;55.798;37.782;2023-04-03T05:18:04;149593.91;;;9.14;72.28
33422;BME280;19763;55.798;37.782;2023-04-03T05:20:31;149610.56;;;9.21;71.53
33422;BME280;19763;55.798;37.782;2023-04-03T05:22:57;149661.81;;;9.41;72.51
33422;BME280;19763;55.798;37.782;2023-04-03T05:25:22;149651.53;;;9.37;72.39
33422;BME280;19763;55.798;37.782;2023-04-03T05:27:48;149686.16;;;9.51;71.42
33422;BME280;19763;55.798;37.782;2023-04-03T05:30:14;149641.28;;;9.33;71.02
33422;BME280;19763;55.798;37.782;2023-04-03T05:32:39;149669.47;;;9.44;71.02
33422;BME280;19763;55.798;37.782;2023-04-03T05:35:06;149606.69;;;9.19;71.02
33422;BME280;19763;55.798;37.782;2023-04-03T05:37:33;149582.41;;;9.09;72.01
33422;BME280;19763;55.798;37.782;2023-04-03T05:39:58;149543.94;;;8.94;71.62
33422;BME280;19763;55.798;37.782;2023-04-03T05:42:24;149559.31;;;9.00;72.34
33422;BME280;19763;55.798;37.782;2023-04-03T05:44:50;149579.81;;;9.08;72.24
33422;BME280;19763;55.798;37.782;2023-04-03T05:47:16;149636.19;;;9.31;70.83
33422;BME280;19763;55.798;37.782;2023-04-03T05:49:42;149618.25;;;9.24;71.30
33422;BME280;19763;55.798;37.782;2023-04-03T05:52:35;149650.28;;;9.37;71.58
33422;BME280;19763;55.798;37.782;2023-04-03T05:55:02;149526.03;;;8.87;72.48
33422;BME280;19763;55.798;37.782;2023-04-03T05:57:28;149532.44;;;8.89;72.87
33422;BME280;19763;55.798;37.782;2023-04-03T05:59:54;149618.25;;;9.24;72.14
33422;BME280;19763;55.798;37.782;2023-04-03T06:02:21;149655.38;;;9.39;71.11
33422;BME280;19763;55.798;37.782;2023-04-03T06:04:47;149720.75;;;9.65;71.67
33422;BME280;19763;55.798;37.782;2023-04-03T06:07:15;149647.72;;;9.36;71.52
33422;BME280;19763;55.798;37.782;2023-04-03T06:09:42;149768.16;;;9.84;71.68
33422;BME280;19763;55.798;37.782;2023-04-03T06:12:08;149720.75;;;9.65;70.48
33422;BME280;19763;55.798;37.782;2023-04-03T06:14:34;149793.78;;;9.94;70.33
33422;BME280;19763;55.798;37.782;2023-04-03T06:16:59;149829.69;;;10.09;70.49
33422;BME280;19763;55.798;37.782;2023-04-03T06:19:25;149906.66;;;10.40;70.18
33422;BME280;19763;55.798;37.782;2023-04-03T06:21:51;149960.53;;;10.61;70.22
33422;BME280;19763;55.798;37.782;2023-04-03T06:24:17;150028.50;;;10.88;69.05
33422;BME280;19763;55.798;37.782;2023-04-03T06:26:43;150056.72;;;11.00;68.65
33422;BME280;19763;55.798;37.782;2023-04-03T06:29:09;150068.28;;;11.04;67.56
33422;BME280;19763;55.798;37.782;2023-04-03T06:31:35;150082.41;;;11.10;68.03
33422;BME280;19763;55.798;37.782;2023-04-03T06:34:05;150073.41;;;11.07;67.01
33422;BME280;19763;55.798;37.782;2023-04-03T06:36:32;150117.00;;;11.24;67.02
33422;BME280;19763;55.798;37.782;2023-04-03T06:38:58;150142.72;;;11.34;66.92
33422;BME280;19763;55.798;37.782;2023-04-03T06:41:24;150172.22;;;11.46;66.90
33422;BME280;19763;55.798;37.782;2023-04-03T06:43:50;150156.78;;;11.40;66.22
33422;BME280;19763;55.798;37.782;2023-04-03T06:46:18;150159.38;;;11.41;65.55
33422;BME280;19763;55.798;37.782;2023-04-03T06:48:44;150179.91;;;11.49;66.08
33422;BME280;19763;55.798;37.782;2023-04-03T06:51:22;150214.56;;;11.63;65.58
33422;BME280;19763;55.798;37.782;2023-04-03T06:53:49;150236.38;;;11.72;65.97
33422;BME280;19763;55.798;37.782;2023-04-03T06:56:15;150247.94;;;11.77;63.39
33422;BME280;19763;55.798;37.782;2023-04-03T06:58:42;150222.25;;;11.66;63.51
33422;BME280;19763;55.798;37.782;2023-04-03T07:01:09;150271.06;;;11.86;63.44
33422;BME280;19763;55.798;37.782;2023-04-03T07:03:36;150310.88;;;12.02;64.23
33422;BME280;19763;55.798;37.782;2023-04-03T07:06:03;150308.31;;;12.01;62.12
33422;BME280;19763;55.798;37.782;2023-04-03T07:08:29;150304.47;;;11.99;61.89
33422;BME280;19763;55.798;37.782;2023-04-03T07:10:55;150295.50;;;11.96;61.29
33422;BME280;19763;55.798;37.782;2023-04-03T07:13:20;150330.13;;;12.09;62.38
33422;BME280;19763;55.798;37.782;2023-04-03T07:15:46;150377.66;;;12.29;62.25
33422;BME280;19763;55.798;37.782;2023-04-03T07:18:11;150369.94;;;12.25;61.55
33422;BME280;19763;55.798;37.782;2023-04-03T07:20:38;150425.16;;;12.48;62.89
33422;BME280;19763;55.798;37.782;2023-04-03T07:23:04;150458.53;;;12.61;61.79
33422;BME280;19763;55.798;37.782;2023-04-03T07:25:30;150459.84;;;12.62;60.13
33422;BME280;19763;55.798;37.782;2023-04-03T07:27:57;150531.78;;;12.90;60.39
33422;BME280;19763;55.798;37.782;2023-04-03T07:30:23;150578.03;;;13.09;59.05
33422;BME280;19763;55.798;37.782;2023-04-03T07:32:49;150588.31;;;13.13;58.11
33422;BME280;19763;55.798;37.782;2023-04-03T07:35:14;150576.75;;;13.08;58.47
33422;BME280;19763;55.798;37.782;2023-04-03T07:37:41;150632.00;;;13.30;56.45
33422;BME280;19763;55.798;37.782;2023-04-03T07:40:08;150677.03;;;13.49;56.51
33422;BME280;19763;55.798;37.782;2023-04-03T07:42:34;150742.56;;;13.75;57.00
33422;BME280;19763;55.798;37.782;2023-04-03T07:45:01;150769.59;;;13.86;57.69
33422;BME280;19763;55.798;37.782;2023-04-03T07:47:27;150524.06;;;12.87;55.14
33422;BME280;19763;55.798;37.782;2023-04-03T07:49:53;150462.38;;;12.63;56.69
33422;BME280;19763;55.798;37.782;2023-04-03T07:52:18;150449.56;;;12.57;56.31
33422;BME280;19763;55.798;37.782;2023-04-03T07:54:44;150484.28;;;12.71;55.95
33422;BME280;19763;55.798;37.782;2023-04-03T07:57:10;150404.59;;;12.39;57.35
33422;BME280;19763;55.798;37.782;2023-04-03T07:59:35;150511.22;;;12.82;57.15
33422;BME280;19763;55.798;37.782;2023-04-03T08:02:01;150485.53;;;12.72;56.24
33422;BME280;19763;55.798;37.782;2023-04-03T08:04:27;150530.50;;;12.90;55.81
33422;BME280;19763;55.798;37.782;2023-04-03T08:06:52;150479.09;;;12.69;57.84
33422;BME280;19763;55.798;37.782;2023-04-03T08:09:18;150538.22;;;12.93;57.85
33422;BME280;19763;55.798;37.782;2023-04-03T08:11:45;150560.03;;;13.02;57.39
33422;BME280;19763;55.798;37.782;2023-04-03T08:14:11;150529.19;;;12.89;58.03
33422;BME280;19763;55.798;37.782;2023-04-03T08:16:43;150557.47;;;13.01;57.10
33422;BME280;19763;55.798;37.782;2023-04-03T08:19:08;150634.56;;;13.32;58.19
33422;BME280;19763;55.798;37.782;2023-04-03T08:21:36;150691.19;;;13.54;57.34
33422;BME280;19763;55.798;37.782;2023-04-03T08:24:01;150796.56;;;13.96;56.84
33422;BME280;19763;55.798;37.782;2023-04-03T08:26:29;150709.16;;;13.61;55.99
33422;BME280;19763;55.798;37.782;2023-04-03T08:28:55;150804.31;;;14.00;56.43
33422;BME280;19763;55.798;37.782;2023-04-03T08:31:20;150800.47;;;13.98;55.55
33422;BME280;19763;55.798;37.782;2023-04-03T08:33:47;150743.91;;;13.75;54.64
33422;BME280;19763;55.798;37.782;2023-04-03T08:36:18;150809.44;;;14.02;54.60
33422;BME280;19763;55.798;37.782;2023-04-03T08:38:44;150857.00;;;14.21;55.64
33422;BME280;19763;55.798;37.782;2023-04-03T08:41:43;150876.31;;;14.28;54.24
33422;BME280;19763;55.798;37.782;2023-04-03T08:50:28;150790.19;;;13.94;54.22
33422;BME280;19763;55.798;37.782;2023-04-03T08:52:44;150782.41;;;13.91;54.54
33422;BME280;19763;55.798;37.782;2023-04-03T08:57:59;150790.19;;;13.94;54.94
33422;BME280;19763;55.798;37.782;2023-04-03T09:00:30;150813.28;;;14.03;54.26
33422;BME280;19763;55.798;37.782;2023-04-03T09:03:00;150809.44;;;14.02;53.90
33422;BME280;19763;55.798;37.782;2023-04-03T09:08:21;150719.47;;;13.66;55.07
33422;BME280;19763;55.798;37.782;2023-04-03T09:10:49;150650.03;;;13.38;56.40
33422;BME280;19763;55.798;37.782;2023-04-03T09:13:33;150615.28;;;13.24;55.51
33422;BME280;19763;55.798;37.782;2023-04-03T09:16:03;150637.16;;;13.33;56.43
33422;BME280;19763;55.798;37.782;2023-04-03T09:18:41;150659.06;;;13.41;55.26
33422;BME280;19763;55.798;37.782;2023-04-03T09:21:21;150779.88;;;13.90;54.28
33422;BME280;19763;55.798;37.782;2023-04-03T09:23:53;150671.88;;;13.46;55.38
33422;BME280;19763;55.798;37.782;2023-04-03T09:26:44;150760.56;;;13.82;53.82
33422;BME280;19763;55.798;37.782;2023-04-03T09:29:16;150635.84;;;13.32;53.10
33422;BME280;19763;55.798;37.782;2023-04-03T09:31:43;150755.44;;;13.80;52.28
33422;BME280;19763;55.798;37.782;2023-04-03T09:34:26;150750.28;;;13.78;52.13
33422;BME280;19763;55.798;37.782;2023-04-03T09:36:55;150832.59;;;14.11;53.46
33422;BME280;19763;55.798;37.782;2023-04-03T09:39:26;150845.44;;;14.16;52.82
33422;BME280;19763;55.798;37.782;2023-04-03T09:42:15;150864.75;;;14.24;52.28
33422;BME280;19763;55.798;37.782;2023-04-03T09:44:42;150878.91;;;14.29;52.39
33422;BME280;19763;55.798;37.782;2023-04-03T09:47:34;150763.16;;;13.83;51.56
33422;BME280;19763;55.798;37.782;2023-04-03T09:52:48;150801.72;;;13.98;52.00
33422;BME280;19763;55.798;37.782;2023-04-03T09:55:23;150731.03;;;13.70;52.80
33422;BME280;19763;55.798;37.782;2023-04-03T09:57:57;150828.69;;;14.09;52.92
33422;BME280;19763;55.798;37.782;2023-04-03T10:00:27;150835.16;;;14.12;53.29
33422;BME280;19763;55.798;37.782;2023-04-03T10:02:57;150894.31;;;14.36;52.24
33422;BME280;19763;55.798;37.782;2023-04-03T10:05:38;150727.16;;;13.69;54.01
33422;BME280;19763;55.798;37.782;2023-04-03T10:10:33;150877.59;;;14.29;54.25
33422;BME280;19763;55.798;37.782;2023-04-03T10:13:16;150896.91;;;14.37;53.60
33422;BME280;19763;55.798;37.782;2023-04-03T10:21:15;150797.88;;;13.97;53.75
33422;BME280;19763;55.798;37.782;2023-04-03T10:27:10;150760.56;;;13.82;52.77
33422;BME280;19763;55.798;37.782;2023-04-03T10:32:47;150705.31;;;13.60;50.72
33422;BME280;19763;55.798;37.782;2023-04-03T10:38:20;150741.31;;;13.74;49.84
33422;BME280;19763;55.798;37.782;2023-04-03T10:40:57;150795.28;;;13.96;50.03
33422;BME280;19763;55.798;37.782;2023-04-03T10:46:28;150831.28;;;14.10;49.37
33422;BME280;19763;55.798;37.782;2023-04-03T10:56:42;150914.91;;;14.44;50.75
33422;BME280;19763;55.798;37.782;2023-04-03T11:01:40;150930.31;;;14.50;50.81
33422;BME280;19763;55.798;37.782;2023-04-03T11:04:07;150863.44;;;14.23;51.11
33422;BME280;19763;55.798;37.782;2023-04-03T11:06:39;150819.72;;;14.06;51.26
33422;BME280;19763;55.798;37.782;2023-04-03T11:09:32;150797.88;;;13.97;50.87
33422;BME280;19763;55.798;37.782;2023-04-03T11:12:09;150711.75;;;13.62;50.66
33422;BME280;19763;55.798;37.782;2023-04-03T11:14:38;150732.28;;;13.71;51.06
33422;BME280;19763;55.798;37.782;2023-04-03T11:17:21;150767.00;;;13.85;51.15
33422;BME280;19763;55.798;37.782;2023-04-03T11:20:17;150749.00;;;13.77;51.56
33422;BME280;19763;55.798;37.782;2023-04-03T11:22:58;150596.03;;;13.16;53.29
33422;BME280;19763;55.798;37.782;2023-04-03T11:25:30;150664.16;;;13.43;52.96
33422;BME280;19763;55.798;37.782;2023-04-03T11:28:00;150709.16;;;13.61;52.83
33422;BME280;19763;55.798;37.782;2023-04-03T11:35:44;150720.72;;;13.66;52.89
33422;BME280;19763;55.798;37.782;2023-04-03T11:38:19;150750.28;;;13.78;52.69
33422;BME280;19763;55.798;37.782;2023-04-03T11:40:47;150725.91;;;13.68;52.42
33422;BME280;19763;55.798;37.782;2023-04-03T11:43:30;150795.28;;;13.96;53.17
33422;BME280;19763;55.798;37.782;2023-04-03T11:51:00;150686.00;;;13.52;53.43
33422;BME280;19763;55.798;37.782;2023-04-03T11:53:32;150701.47;;;13.58;53.71
33422;BME280;19763;55.798;37.782;2023-04-03T11:58:29;150758.03;;;13.81;53.49
33422;BME280;19763;55.798;37.782;2023-04-03T12:01:06;150743.91;;;13.75;53.16
33422;BME280;19763;55.798;37.782;2023-04-03T12:16:32;150781.16;;;13.90;52.83
33422;BME280;19763;55.798;37.782;2023-04-03T12:19:02;150691.19;;;13.54;53.26
33422;BME280;19763;55.798;37.782;2023-04-03T12:29:22;150709.16;;;13.61;54.24
33422;BME280;19763;55.798;37.782;2023-04-03T12:37:58;150711.75;;;13.62;52.86
33422;BME280;19763;55.798;37.782;2023-04-03T12:45:41;150783.72;;;13.91;53.65
33422;BME280;19763;55.798;37.782;2023-04-03T12:48:15;150747.75;;;13.77;53.08
33422;BME280;19763;55.798;37.782;2023-04-03T12:50:41;150769.59;;;13.86;53.14
33422;BME280;19763;55.798;37.782;2023-04-03T12:53:15;150741.31;;;13.74;52.32
33422;BME280;19763;55.798;37.782;2023-04-03T12:55:42;150772.19;;;13.87;53.11
33422;BME280;19763;55.798;37.782;2023-04-03T12:58:37;150754.13;;;13.79;53.07
33422;BME280;19763;55.798;37.782;2023-04-03T13:01:10;150724.59;;;13.68;52.62
33422;BME280;19763;55.798;37.782;2023-04-03T13:03:39;150737.44;;;13.73;52.99
33422;BME280;19763;55.798;37.782;2023-04-03T13:06:05;150722.00;;;13.67;53.37
33422;BME280;19763;55.798;37.782;2023-04-03T13:08:31;150765.75;;;13.84;55.00
33422;BME280;19763;55.798;37.782;2023-04-03T13:11:09;150727.16;;;13.69;54.24
33422;BME280;19763;55.798;37.782;2023-04-03T13:13:37;150723.31;;;13.67;53.28
33422;BME280;19763;55.798;37.782;2023-04-03T13:16:11;150669.34;;;13.45;54.22
33422;BME280;19763;55.798;37.782;2023-04-03T13:18:38;150716.88;;;13.64;54.93
33422;BME280;19763;55.798;37.782;2023-04-03T13:21:07;150710.44;;;13.62;54.77
33422;BME280;19763;55.798;37.782;2023-04-03T13:23:40;150742.56;;;13.75;55.06
33422;BME280;19763;55.798;37.782;2023-04-03T13:26:08;150711.75;;;13.62;54.63
33422;BME280;19763;55.798;37.782;2023-04-03T13:28:34;150710.44;;;13.62;55.69
33422;BME280;19763;55.798;37.782;2023-04-03T13:33:34;150662.91;;;13.43;57.20
33422;BME280;19763;55.798;37.782;2023-04-03T13:36:06;150701.47;;;13.58;57.22
33422;BME280;19763;55.798;37.782;2023-04-03T13:38:33;150684.75;;;13.52;56.49
33422;BME280;19763;55.798;37.782;2023-04-03T13:41:02;150689.88;;;13.54;57.84
33422;BME280;19763;55.798;37.782;2023-04-03T13:43:34;150729.75;;;13.70;57.86
33422;BME280;19763;55.798;37.782;2023-04-03T13:48:41;150756.72;;;13.80;57.05
33422;BME280;19763;55.798;37.782;2023-04-03T13:56:34;150696.31;;;13.56;58.12
33422;BME280;19763;55.798;37.782;2023-04-03T13:59:24;150660.31;;;13.42;59.20
33422;BME280;19763;55.798;37.782;2023-04-03T14:02:21;150606.31;;;13.20;59.36
33422;BME280;19763;55.798;37.782;2023-04-03T14:04:52;150599.88;;;13.18;61.19
33422;BME280;19763;55.798;37.782;2023-04-03T14:07:22;150556.19;;;13.00;60.31
33422;BME280;19763;55.798;37.782;2023-04-03T14:09:48;150607.56;;;13.21;60.38
33422;BME280;19763;55.798;37.782;2023-04-03T14:12:30;150605.03;;;13.20;60.71
33422;BME280;19763;55.798;37.782;2023-04-03T14:14:57;150601.19;;;13.18;60.35
33422;BME280;19763;55.798;37.782;2023-04-03T14:17:26;150580.63;;;13.10;61.49
33422;BME280;19763;55.798;37.782;2023-04-03T14:19:54;150560.03;;;13.02;61.77
33422;BME280;19763;55.798;37.782;2023-04-03T14:22:25;150611.41;;;13.22;60.76
33422;BME280;19763;55.798;37.782;2023-04-03T14:24:52;150637.16;;;13.33;60.96
33422;BME280;19763;55.798;37.782;2023-04-03T14:27:35;150665.50;;;13.44;61.11
33422;BME280;19763;55.798;37.782;2023-04-03T14:30:01;150684.75;;;13.52;61.70
33422;BME280;19763;55.798;37.782;2023-04-03T14:32:28;150642.34;;;13.35;61.17
33422;BME280;19763;55.798;37.782;2023-04-03T14:34:55;150625.56;;;13.28;61.69
33422;BME280;19763;55.798;37.782;2023-04-03T14:37:25;150626.88;;;13.28;61.47
33422;BME280;19763;55.798;37.782;2023-04-03T14:39:53;150623.03;;;13.27;61.21
33422;BME280;19763;55.798;37.782;2023-04-03T14:42:24;150652.63;;;13.39;61.91